»·PEaware :: N172EV KDAL-KADS

N172EV :: KDAL-KADS

FLIGHT INFORMATION

Flight Status: Arrived
Operator: Privately registered:
United States
More flights under this callsign
Pilot: Ryan V. (30102)
Aircraft: CESSNA 172 SKYHAWK
(C172)
More flights by this aircraft type
Origin: KDAL Dallas Love
United States
Destination: KADS Addison
United States
More flights between these airports :: More routes between these airports
Route: NE
File this flight plan on PilotEdge
Remarks: VFR
Altitude:
(Current/Filed)
2,000ft
Speed:
(Current/Filed)
100kts
Departed: 08-Jul-20 03:58 AM
Arrived: 08-Jul-20 04:21 AM
Distance/Time
Traveled:
8nm/0:23
Distance/Time
To Go:
Arrived

Flight Plot

Page will automatically refresh every two minutes.

Flight plan parsing failed; only flown route is shown


Map Options




Map Legend


Flown Route
Filed Route
Departure Airport
Arrival Airport
Navaid (VOR, NDB)
Fix

Horizontal Profiles

Position Reports

Time Latitude Longitude Heading Altitude Ground
Speed
08-Jul-20 03:27 32.836974 -96.843982 310 473ft 0kts
08-Jul-20 03:28 32.836974 -96.843982 310 473ft 0kts
08-Jul-20 03:29 32.836974 -96.843982 310 473ft 0kts
08-Jul-20 03:30 32.836974 -96.843982 310 473ft 0kts
08-Jul-20 03:31 32.836974 -96.843982 310 473ft 0kts
08-Jul-20 03:32 32.836974 -96.843982 310 473ft 0kts
08-Jul-20 03:33 32.836974 -96.843982 310 473ft 0kts
08-Jul-20 03:34 32.836974 -96.843982 310 473ft 0kts
08-Jul-20 03:35 32.836974 -96.843982 310 473ft 0kts
08-Jul-20 03:36 32.836974 -96.843982 310 473ft 0kts
08-Jul-20 03:37 32.836974 -96.843982 310 473ft 0kts
08-Jul-20 03:38 32.837060 -96.844191 275 473ft 6kts
08-Jul-20 03:39 32.838244 -96.846497 310 473ft 18kts
08-Jul-20 03:40 32.841173 -96.849916 317 473ft 21kts
08-Jul-20 03:41 32.845086 -96.854417 317 473ft 20kts
08-Jul-20 03:42 32.849543 -96.859595 315 470ft 14kts
08-Jul-20 03:43 32.851372 -96.861727 319 464ft 0kts
08-Jul-20 03:44 32.851392 -96.861747 318 463ft 0kts
08-Jul-20 03:45 32.851396 -96.861750 320 463ft 0kts
08-Jul-20 03:46 32.851396 -96.861750 320 463ft 0kts
08-Jul-20 03:47 32.851396 -96.861750 320 463ft 0kts
08-Jul-20 03:48 32.851396 -96.861750 320 463ft 0kts
08-Jul-20 03:49 32.851396 -96.861750 320 463ft 0kts
08-Jul-20 03:50 32.851396 -96.861751 320 463ft 0kts
08-Jul-20 03:51 32.851395 -96.861750 320 463ft 0kts
08-Jul-20 03:52 32.851395 -96.861750 320 463ft 0kts
08-Jul-20 03:53 32.851397 -96.861751 320 463ft 0kts
08-Jul-20 03:54 32.851766 -96.862178 303 462ft 0kts
08-Jul-20 03:55 32.851766 -96.862179 304 462ft 0kts
08-Jul-20 03:56 32.851227 -96.863111 180 461ft 7kts
08-Jul-20 03:57 32.845637 -96.856483 141 588ft 77kts
08-Jul-20 03:58 32.832542 -96.846772 136 1179ft 83kts
08-Jul-20 03:59 32.835443 -96.825350 82 1776ft 96kts
08-Jul-20 04:00 32.847011 -96.808618 352 2350ft 102kts
08-Jul-20 04:01 32.870510 -96.808175 1 2253ft 140kts
08-Jul-20 04:02 32.897767 -96.799810 16 1991ft 134kts
08-Jul-20 04:03 32.924842 -96.796874 349 1864ft 125kts
08-Jul-20 04:04 32.951307 -96.805206 336 1470ft 126kts
08-Jul-20 04:05 32.973180 -96.814500 337 1423ft 97kts
08-Jul-20 04:06 32.986352 -96.823401 306 1415ft 60kts
08-Jul-20 04:07 32.992240 -96.835524 262 1242ft 51kts
08-Jul-20 04:08 32.987247 -96.843881 166 1043ft 50kts
08-Jul-20 04:09 32.976791 -96.839840 170 693ft 47kts
08-Jul-20 04:10 32.966886 -96.835804 162 898ft 63kts
08-Jul-20 04:11 32.954252 -96.824268 126 1313ft 96kts
08-Jul-20 04:12 32.966003 -96.810766 1 1725ft 101kts
08-Jul-20 04:13 32.983846 -96.814906 351 1905ft 80kts
08-Jul-20 04:14 33.000100 -96.823629 299 1811ft 81kts
08-Jul-20 04:15 33.008362 -96.838442 279 1677ft 61kts
08-Jul-20 04:16 33.006394 -96.851594 228 1468ft 49kts
08-Jul-20 04:17 32.996909 -96.848008 161 1184ft 54kts
08-Jul-20 04:18 32.986673 -96.844095 165 909ft 50kts
08-Jul-20 04:19 32.977661 -96.840399 177 700ft 42kts
08-Jul-20 04:20 32.972684 -96.837820 71 633ft 18kts
08-Jul-20 04:21 32.975356 -96.834238 261 640ft 8kts
08-Jul-20 04:22 32.975338 -96.834314 252 640ft 0kts
08-Jul-20 04:23 32.975338 -96.834314 252 640ft 0kts
08-Jul-20 04:24 32.975338 -96.834314 252 640ft 0kts
08-Jul-20 04:25 32.975338 -96.834314 252 640ft 0kts
08-Jul-20 04:26 32.975338 -96.834314 252 640ft 0kts
08-Jul-20 04:27 32.975338 -96.834314 252 640ft 0kts
08-Jul-20 04:28 32.975338 -96.834314 252 640ft 0kts
08-Jul-20 04:29 32.975338 -96.834314 252 640ft 0kts
08-Jul-20 04:30 32.975338 -96.834314 252 640ft 0kts
08-Jul-20 04:31 32.975338 -96.834314 252 640ft 0kts
08-Jul-20 04:32 32.975338 -96.834314 252 640ft 0kts
08-Jul-20 04:33 32.975338 -96.834314 252 640ft 0kts
08-Jul-20 04:34 32.975338 -96.834314 252 640ft 0kts

Navigation Log

Ident Type
Flight plan parsing failed, navigation log unavailable